Flight Track Log - Related Links

Times and Time Zones

All times are in EDT time to prevent confusion due to time zone crossing. See the RPA4907 flight status page for this flight to view local times or setup timezone preferences in your user account.

Time Position Orientation Groundspeed Altitude Reporting Facility
EDT Latitude Longitude Course Direction KTS MPH feet Rate Location/Type
Tue 03:07:47 PM 40.6333 -74.1833 255° West 193 222 3,000  Level New York TRACON
Tue 03:08:41 PM 40.6000 -74.2333 229° Southwest 209 241 5,200 2,526 Climbing New York TRACON
Tue 03:09:00 PM 40.5815 -74.4852 245° Southwest  Level FlightAware Approximate
Tue 03:09:41 PM 40.6000 -74.3000 270° West 215 247 7,800  Level New York TRACON
Tue 03:10:00 PM 40.5429 -74.5935 245° Southwest  Level FlightAware Approximate
Tue 03:10:41 PM 40.6167 -74.3833 285° West 207 238 10,400  Level New York TRACON
Tue 03:11:00 PM 40.5049 -74.7021 246° West  Level FlightAware Approximate
Tue 03:12:00 PM 40.4684 -74.8115 246° West  Level FlightAware Approximate
Tue 03:13:00 PM 40.4272 -74.9140 255° West  Level FlightAware Approximate
Tue 03:13:04 PM 40.5889 -74.5450 257° West 214 246 14,100  Level New York Center
Tue 03:14:04 PM 40.5569 -74.6281 243° Southwest 263 303 14,000  Descending New York Center
Tue 03:15:05 PM 40.5139 -74.7347 242° Southwest 299 344 14,100 605 Climbing New York Center
Tue 03:16:03 PM 40.4775 -74.8228 242° Southwest 316 364 15,200 966 Climbing New York Center
Tue 03:17:03 PM 40.4361 -74.9294 243° Southwest 311 358 16,000 393 Climbing New York Center
Tue 03:18:05 PM 40.3892 -75.0192 236° Southwest 305 351 16,000  Level New York Center
Tue 03:19:05 PM 40.3322 -75.0947 225° Southwest 315 362 16,000  Level New York Center
Tue 03:20:03 PM 40.2728 -75.1806 228° Southwest 327 376 16,000 51 Level New York Center
Tue 03:21:03 PM 40.2025 -75.2767 226° Southwest 339 390 16,100 50 Climbing New York Center
Tue 03:22:04 PM 40.1475 -75.3519 226° Southwest 334 384 16,100  Level New York Center
Tue 03:23:04 PM 40.0814 -75.4453 227° Southwest 334 384 16,100  Level New York Center
Tue 03:24:04 PM 40.0217 -75.5306 228° Southwest 334 384 16,100  Level New York Center
Tue 03:25:05 PM 39.9619 -75.6133 227° Southwest 334 384 16,100  Level New York Center
Tue 03:26:05 PM 39.9042 -75.6986 229° Southwest 334 384 16,100 -50 Level New York Center
Tue 03:27:05 PM 39.8544 -75.7925 235° Southwest 325 374 16,000 -458 Descending New York Center
Tue 03:28:03 PM 39.8067 -75.8864 236° Southwest 320 368 15,200 -943 Descending New York Center
Tue 03:29:44 PM 39.7167 -76.0500 234° Southwest 329 379 13,500 -1,043 Descending Potomac TRACON
Tue 03:30:44 PM 39.6667 -76.1500 237° Southwest 322 371 12,400 -1,300 Descending Potomac TRACON
Tue 03:31:44 PM 39.6333 -76.2333 243° Southwest 302 348 10,900 -1,600 Descending Potomac TRACON
Tue 03:32:44 PM 39.5833 -76.3333 237° Southwest 266 306 9,200 -1,600 Descending Potomac TRACON
Tue 03:33:44 PM 39.5500 -76.4167 243° Southwest 256 295 7,700 -1,350 Descending Potomac TRACON
Tue 03:34:44 PM 39.5167 -76.4833 237° Southwest 238 274 6,500 -1,388 Descending Potomac TRACON
Tue 03:35:45 PM 39.4833 -76.5667 243° Southwest 223 257 4,900 -1,240 Descending Potomac TRACON
Tue 03:36:45 PM 39.4500 -76.6333 237° Southwest 236 272 4,000 -900 Descending Potomac TRACON
Tue 03:37:45 PM 39.4333 -76.7000 252° West 237 273 3,100 -480 Descending Potomac TRACON
Tue 03:38:50 PM 39.4000 -76.7833 243° Southwest 227 261 3,000 -48 Descending Potomac TRACON
Tue 03:39:51 PM 39.3667 -76.8667 243° Southwest 232 267 3,000  Level Potomac TRACON
Tue 03:40:51 PM 39.3333 -76.9333 237° Southwest 231 266 3,000 53 Level Potomac TRACON
Tue 03:41:45 PM 39.2833 -76.9500 194° South 233 268 3,100  Climbing Potomac TRACON
Tue 03:42:51 PM 39.2167 -76.9667 191° South 230 265 3,000  Descending Potomac TRACON
Tue 03:43:51 PM 39.1833 -76.9333 142° Southeast 201 231 3,100 100 Climbing Potomac TRACON

Login

Don't have an account? Register now (free) for customized features, flight alerts, and more!